sensor_id;sensor_type;location;lat;lon;timestamp;pressure;altitude;pressure_sealevel;temperature;humidity
67029;BME280;53934;52.142;11.738;2022-11-03T00:01:53;101542.59;;;7.45;85.82
67029;BME280;53934;52.142;11.738;2022-11-03T00:04:21;101549.25;;;7.57;84.24
67029;BME280;53934;52.142;11.738;2022-11-03T00:06:51;101550.53;;;7.41;86.20
67029;BME280;53934;52.142;11.738;2022-11-03T00:09:19;101546.22;;;7.06;88.69
67029;BME280;53934;52.142;11.738;2022-11-03T00:11:48;101551.28;;;7.46;86.29
67029;BME280;53934;52.142;11.738;2022-11-03T00:14:15;101554.97;;;7.71;84.82
67029;BME280;53934;52.142;11.738;2022-11-03T00:16:42;101543.84;;;7.64;85.36
67029;BME280;53934;52.142;11.738;2022-11-03T00:19:10;101539.34;;;7.35;87.17
67029;BME280;53934;52.142;11.738;2022-11-03T00:21:37;101535.50;;;7.50;86.80
67029;BME280;53934;52.142;11.738;2022-11-03T00:24:08;101540.00;;;7.45;87.82
67029;BME280;53934;52.142;11.738;2022-11-03T00:26:34;101537.38;;;7.45;87.62
67029;BME280;53934;52.142;11.738;2022-11-03T00:29:05;101537.75;;;7.95;85.38
67029;BME280;53934;52.142;11.738;2022-11-03T00:31:33;101540.47;;;8.21;83.98
67029;BME280;53934;52.142;11.738;2022-11-03T00:34:01;101538.66;;;7.61;86.59
67029;BME280;53934;52.142;11.738;2022-11-03T00:36:30;101543.06;;;7.61;87.21
67029;BME280;53934;52.142;11.738;2022-11-03T00:38:57;101541.59;;;7.81;85.03
67029;BME280;53934;52.142;11.738;2022-11-03T00:41:25;101544.19;;;7.83;83.89
67029;BME280;53934;52.142;11.738;2022-11-03T00:43:52;101535.72;;;7.75;85.62
67029;BME280;53934;52.142;11.738;2022-11-03T00:46:21;101540.06;;;8.05;83.34
67029;BME280;53934;52.142;11.738;2022-11-03T00:48:47;101532.44;;;7.67;86.33
67029;BME280;53934;52.142;11.738;2022-11-03T00:51:17;101531.31;;;7.45;87.55
67029;BME280;53934;52.142;11.738;2022-11-03T00:53:45;101522.34;;;7.86;85.21
67029;BME280;53934;52.142;11.738;2022-11-03T00:56:13;101529.63;;;8.05;84.12
67029;BME280;53934;52.142;11.738;2022-11-03T00:58:42;101528.38;;;7.88;83.57
67029;BME280;53934;52.142;11.738;2022-11-03T01:01:10;101521.06;;;7.37;87.74
67029;BME280;53934;52.142;11.738;2022-11-03T01:03:38;101522.72;;;7.40;87.17
67029;BME280;53934;52.142;11.738;2022-11-03T01:06:06;101519.16;;;7.44;87.10
67029;BME280;53934;52.142;11.738;2022-11-03T01:08:51;101512.41;;;7.67;85.50
67029;BME280;53934;52.142;11.738;2022-11-03T01:11:19;101502.50;;;7.15;88.42
67029;BME280;53934;52.142;11.738;2022-11-03T01:14:06;101515.41;;;6.86;89.85
67029;BME280;53934;52.142;11.738;2022-11-03T01:16:33;101515.94;;;6.99;90.12
67029;BME280;53934;52.142;11.738;2022-11-03T01:19:00;101511.50;;;7.04;89.79
67029;BME280;53934;52.142;11.738;2022-11-03T01:21:26;101517.59;;;7.03;89.75
67029;BME280;53934;52.142;11.738;2022-11-03T01:23:53;101511.13;;;6.83;90.67
67029;BME280;53934;52.142;11.738;2022-11-03T01:26:19;101502.22;;;7.26;89.06
67029;BME280;53934;52.142;11.738;2022-11-03T01:28:46;101507.44;;;7.58;86.56
67029;BME280;53934;52.142;11.738;2022-11-03T01:31:17;101509.03;;;7.64;86.22
67029;BME280;53934;52.142;11.738;2022-11-03T01:33:44;101504.09;;;8.15;83.35
67029;BME280;53934;52.142;11.738;2022-11-03T01:36:13;101500.72;;;7.80;83.84
67029;BME280;53934;52.142;11.738;2022-11-03T01:38:40;101502.63;;;7.75;84.74
67029;BME280;53934;52.142;11.738;2022-11-03T01:41:08;101495.03;;;7.66;85.00
67029;BME280;53934;52.142;11.738;2022-11-03T01:43:37;101489.06;;;7.94;83.41
67029;BME280;53934;52.142;11.738;2022-11-03T01:46:11;101490.66;;;8.27;81.80
67029;BME280;53934;52.142;11.738;2022-11-03T01:48:43;101490.22;;;8.13;82.58
67029;BME280;53934;52.142;11.738;2022-11-03T01:51:13;101483.69;;;8.27;80.54
67029;BME280;53934;52.142;11.738;2022-11-03T01:53:43;101488.22;;;8.21;80.67
67029;BME280;53934;52.142;11.738;2022-11-03T01:56:12;101482.97;;;8.22;80.19
67029;BME280;53934;52.142;11.738;2022-11-03T01:58:40;101484.91;;;8.16;80.45
67029;BME280;53934;52.142;11.738;2022-11-03T02:01:09;101475.28;;;7.87;81.89
67029;BME280;53934;52.142;11.738;2022-11-03T02:03:42;101480.91;;;7.73;82.41
67029;BME280;53934;52.142;11.738;2022-11-03T02:06:11;101479.28;;;7.69;82.77
67029;BME280;53934;52.142;11.738;2022-11-03T02:08:42;101461.56;;;7.80;81.38
67029;BME280;53934;52.142;11.738;2022-11-03T02:11:14;101460.19;;;7.37;84.66
67029;BME280;53934;52.142;11.738;2022-11-03T02:13:58;101451.56;;;7.34;85.48
67029;BME280;53934;52.142;11.738;2022-11-03T02:16:25;101450.91;;;7.26;86.68
67029;BME280;53934;52.142;11.738;2022-11-03T02:18:56;101444.88;;;7.55;85.77
67029;BME280;53934;52.142;11.738;2022-11-03T02:21:26;101446.59;;;7.25;86.30
67029;BME280;53934;52.142;11.738;2022-11-03T02:23:58;101438.88;;;7.21;87.24
67029;BME280;53934;52.142;11.738;2022-11-03T02:26:27;101439.91;;;7.15;87.56
67029;BME280;53934;52.142;11.738;2022-11-03T02:28:54;101445.59;;;6.63;90.62
67029;BME280;53934;52.142;11.738;2022-11-03T02:31:27;101436.94;;;6.95;88.79
67029;BME280;53934;52.142;11.738;2022-11-03T02:34:00;101432.38;;;6.71;90.84
67029;BME280;53934;52.142;11.738;2022-11-03T02:36:35;101444.44;;;7.09;88.99
67029;BME280;53934;52.142;11.738;2022-11-03T02:39:04;101440.09;;;7.08;88.00
67029;BME280;53934;52.142;11.738;2022-11-03T02:41:34;101432.03;;;7.17;87.98
67029;BME280;53934;52.142;11.738;2022-11-03T02:44:03;101431.69;;;7.29;87.00
67029;BME280;53934;52.142;11.738;2022-11-03T02:46:31;101424.78;;;7.28;87.02
67029;BME280;53934;52.142;11.738;2022-11-03T02:48:59;101417.81;;;6.96;88.59
67029;BME280;53934;52.142;11.738;2022-11-03T02:51:26;101416.75;;;7.03;87.55
67029;BME280;53934;52.142;11.738;2022-11-03T02:54:00;101409.00;;;7.02;86.98
67029;BME280;53934;52.142;11.738;2022-11-03T02:56:30;101414.25;;;6.99;87.38
67029;BME280;53934;52.142;11.738;2022-11-03T02:59:01;101413.06;;;6.79;88.76
67029;BME280;53934;52.142;11.738;2022-11-03T03:01:31;101405.22;;;6.79;88.56
67029;BME280;53934;52.142;11.738;2022-11-03T03:04:04;101410.44;;;6.79;88.54
67029;BME280;53934;52.142;11.738;2022-11-03T03:06:34;101404.84;;;6.95;88.20
67029;BME280;53934;52.142;11.738;2022-11-03T03:09:04;101411.16;;;6.84;88.18
67029;BME280;53934;52.142;11.738;2022-11-03T03:11:33;101410.38;;;6.81;88.60
67029;BME280;53934;52.142;11.738;2022-11-03T03:14:09;101397.03;;;6.59;89.63
67029;BME280;53934;52.142;11.738;2022-11-03T03:16:42;101401.09;;;6.71;90.08
67029;BME280;53934;52.142;11.738;2022-11-03T03:19:17;101401.09;;;7.05;86.89
67029;BME280;53934;52.142;11.738;2022-11-03T03:21:49;101389.50;;;7.15;87.14
67029;BME280;53934;52.142;11.738;2022-11-03T03:24:22;101388.28;;;6.96;87.41
67029;BME280;53934;52.142;11.738;2022-11-03T03:26:52;101391.00;;;7.23;86.03
67029;BME280;53934;52.142;11.738;2022-11-03T03:29:23;101386.59;;;6.95;88.02
67029;BME280;53934;52.142;11.738;2022-11-03T03:31:55;101390.72;;;7.34;85.44
67029;BME280;53934;52.142;11.738;2022-11-03T03:34:24;101384.84;;;7.26;86.02
67029;BME280;53934;52.142;11.738;2022-11-03T03:36:53;101380.50;;;6.94;87.17
67029;BME280;53934;52.142;11.738;2022-11-03T03:39:23;101385.53;;;7.02;86.87
67029;BME280;53934;52.142;11.738;2022-11-03T03:41:53;101394.94;;;6.73;89.78
67029;BME280;53934;52.142;11.738;2022-11-03T03:44:23;101393.09;;;6.78;89.22
67029;BME280;53934;52.142;11.738;2022-11-03T03:46:51;101394.25;;;6.99;87.85
67029;BME280;53934;52.142;11.738;2022-11-03T03:49:21;101392.81;;;6.89;88.22
67029;BME280;53934;52.142;11.738;2022-11-03T03:51:48;101392.41;;;6.72;88.61
67029;BME280;53934;52.142;11.738;2022-11-03T03:54:15;101387.50;;;6.92;88.07
67029;BME280;53934;52.142;11.738;2022-11-03T03:56:45;101377.56;;;7.06;87.36
67029;BME280;53934;52.142;11.738;2022-11-03T03:59:13;101380.13;;;6.75;89.35
67029;BME280;53934;52.142;11.738;2022-11-03T04:01:41;101375.91;;;6.71;89.79
67029;BME280;53934;52.142;11.738;2022-11-03T04:04:08;101375.59;;;6.48;91.60
67029;BME280;53934;52.142;11.738;2022-11-03T04:06:34;101371.72;;;6.64;90.31
67029;BME280;53934;52.142;11.738;2022-11-03T04:09:01;101379.31;;;6.73;90.32
67029;BME280;53934;52.142;11.738;2022-11-03T04:11:27;101373.69;;;6.56;90.83
67029;BME280;53934;52.142;11.738;2022-11-03T04:14:11;101366.38;;;6.69;91.19
67029;BME280;53934;52.142;11.738;2022-11-03T04:16:57;101373.31;;;6.70;90.20
67029;BME280;53934;52.142;11.738;2022-11-03T04:19:40;101356.41;;;6.52;91.46
67029;BME280;53934;52.142;11.738;2022-11-03T04:22:28;101353.31;;;6.70;90.44
67029;BME280;53934;52.142;11.738;2022-11-03T04:24:57;101351.69;;;6.66;90.85
67029;BME280;53934;52.142;11.738;2022-11-03T04:27:28;101351.84;;;6.60;91.06
67029;BME280;53934;52.142;11.738;2022-11-03T04:29:56;101359.69;;;6.60;91.00
67029;BME280;53934;52.142;11.738;2022-11-03T04:32:27;101359.00;;;6.86;89.22
67029;BME280;53934;52.142;11.738;2022-11-03T04:34:54;101356.69;;;6.75;89.60
67029;BME280;53934;52.142;11.738;2022-11-03T04:37:20;101353.97;;;7.11;87.95
67029;BME280;53934;52.142;11.738;2022-11-03T04:39:47;101341.47;;;7.22;86.49
67029;BME280;53934;52.142;11.738;2022-11-03T04:42:16;101337.53;;;7.09;87.36
67029;BME280;53934;52.142;11.738;2022-11-03T04:44:44;101329.34;;;6.90;87.83
67029;BME280;53934;52.142;11.738;2022-11-03T04:47:11;101330.47;;;7.12;86.75
67029;BME280;53934;52.142;11.738;2022-11-03T04:49:40;101324.31;;;7.15;86.29
67029;BME280;53934;52.142;11.738;2022-11-03T04:52:12;101325.56;;;7.02;87.11
67029;BME280;53934;52.142;11.738;2022-11-03T04:54:40;101330.41;;;7.14;86.68
67029;BME280;53934;52.142;11.738;2022-11-03T04:57:09;101324.91;;;6.94;87.66
67029;BME280;53934;52.142;11.738;2022-11-03T04:59:36;101325.56;;;7.02;87.30
67029;BME280;53934;52.142;11.738;2022-11-03T05:02:07;101324.81;;;6.97;87.18
67029;BME280;53934;52.142;11.738;2022-11-03T05:04:34;101326.31;;;6.73;88.64
67029;BME280;53934;52.142;11.738;2022-11-03T05:07:16;101319.75;;;6.58;89.69
67029;BME280;53934;52.142;11.738;2022-11-03T05:09:47;101309.94;;;7.00;87.06
67029;BME280;53934;52.142;11.738;2022-11-03T05:12:14;101305.81;;;6.92;86.58
67029;BME280;53934;52.142;11.738;2022-11-03T05:14:41;101297.44;;;6.50;88.14
67029;BME280;53934;52.142;11.738;2022-11-03T05:17:17;101301.59;;;6.21;91.88
67029;BME280;53934;52.142;11.738;2022-11-03T05:19:47;101292.41;;;6.42;92.24
67029;BME280;53934;52.142;11.738;2022-11-03T05:22:18;101286.81;;;6.57;91.29
67029;BME280;53934;52.142;11.738;2022-11-03T05:24:45;101308.03;;;6.42;92.83
67029;BME280;53934;52.142;11.738;2022-11-03T05:27:16;101299.47;;;6.71;90.36
67029;BME280;53934;52.142;11.738;2022-11-03T05:29:43;101301.03;;;6.76;90.38
67029;BME280;53934;52.142;11.738;2022-11-03T05:32:13;101294.53;;;7.22;88.05
67029;BME280;53934;52.142;11.738;2022-11-03T05:34:42;101293.19;;;7.09;87.88
67029;BME280;53934;52.142;11.738;2022-11-03T05:37:21;101286.38;;;7.03;88.93
67029;BME280;53934;52.142;11.738;2022-11-03T05:39:49;101276.53;;;6.83;89.11
67029;BME280;53934;52.142;11.738;2022-11-03T05:42:27;101277.03;;;6.96;89.29
67029;BME280;53934;52.142;11.738;2022-11-03T05:44:55;101272.41;;;7.35;86.83
67029;BME280;53934;52.142;11.738;2022-11-03T05:47:24;101270.78;;;7.60;85.29
67029;BME280;53934;52.142;11.738;2022-11-03T05:49:55;101261.59;;;7.75;84.31
67029;BME280;53934;52.142;11.738;2022-11-03T05:52:27;101260.88;;;7.98;82.86
67029;BME280;53934;52.142;11.738;2022-11-03T05:54:56;101268.94;;;7.90;82.63
67029;BME280;53934;52.142;11.738;2022-11-03T05:57:24;101273.19;;;7.66;82.53
67029;BME280;53934;52.142;11.738;2022-11-03T05:59:51;101268.66;;;7.16;84.63
67029;BME280;53934;52.142;11.738;2022-11-03T06:02:36;101263.13;;;7.25;85.08
67029;BME280;53934;52.142;11.738;2022-11-03T06:05:10;101260.69;;;7.20;84.38
67029;BME280;53934;52.142;11.738;2022-11-03T06:07:42;101261.59;;;6.89;86.14
67029;BME280;53934;52.142;11.738;2022-11-03T06:10:20;101261.44;;;6.95;85.62
67029;BME280;53934;52.142;11.738;2022-11-03T06:12:48;101255.81;;;7.08;83.93
67029;BME280;53934;52.142;11.738;2022-11-03T06:15:26;101266.56;;;6.98;84.71
67029;BME280;53934;52.142;11.738;2022-11-03T06:17:52;101264.34;;;7.13;84.75
67029;BME280;53934;52.142;11.738;2022-11-03T06:20:20;101274.72;;;7.46;82.83
67029;BME280;53934;52.142;11.738;2022-11-03T06:22:49;101272.56;;;7.58;82.05
67029;BME280;53934;52.142;11.738;2022-11-03T06:25:23;101270.75;;;7.88;80.72
67029;BME280;53934;52.142;11.738;2022-11-03T06:27:50;101265.25;;;7.69;82.09
67029;BME280;53934;52.142;11.738;2022-11-03T06:30:22;101270.09;;;7.81;80.98
67029;BME280;53934;52.142;11.738;2022-11-03T06:32:52;101257.28;;;7.74;81.12
67029;BME280;53934;52.142;11.738;2022-11-03T06:35:19;101266.94;;;7.72;80.22
67029;BME280;53934;52.142;11.738;2022-11-03T06:37:45;101255.88;;;7.64;79.96
67029;BME280;53934;52.142;11.738;2022-11-03T06:40:35;101255.38;;;7.51;81.18
67029;BME280;53934;52.142;11.738;2022-11-03T06:43:20;101253.00;;;7.16;82.18
67029;BME280;53934;52.142;11.738;2022-11-03T06:45:52;101263.09;;;6.66;85.07
67029;BME280;53934;52.142;11.738;2022-11-03T06:48:21;101259.47;;;6.40;88.46
67029;BME280;53934;52.142;11.738;2022-11-03T06:50:48;101260.09;;;6.49;88.89
67029;BME280;53934;52.142;11.738;2022-11-03T06:53:19;101256.13;;;6.67;89.79
67029;BME280;53934;52.142;11.738;2022-11-03T06:55:48;101243.31;;;7.19;87.26
67029;BME280;53934;52.142;11.738;2022-11-03T06:58:19;101252.56;;;6.69;89.88
67029;BME280;53934;52.142;11.738;2022-11-03T07:00:48;101243.03;;;6.99;89.00
67029;BME280;53934;52.142;11.738;2022-11-03T07:03:17;101237.25;;;6.90;90.45
67029;BME280;53934;52.142;11.738;2022-11-03T07:05:46;101240.41;;;7.30;88.90
67029;BME280;53934;52.142;11.738;2022-11-03T07:08:20;101236.44;;;7.72;86.78
67029;BME280;53934;52.142;11.738;2022-11-03T07:10:49;101241.66;;;7.99;85.45
67029;BME280;53934;52.142;11.738;2022-11-03T07:13:19;101234.75;;;7.98;86.22
67029;BME280;53934;52.142;11.738;2022-11-03T07:15:48;101238.28;;;8.21;86.61
67029;BME280;53934;52.142;11.738;2022-11-03T07:18:18;101234.03;;;8.45;84.96
67029;BME280;53934;52.142;11.738;2022-11-03T07:20:47;101236.50;;;8.23;83.81
67029;BME280;53934;52.142;11.738;2022-11-03T07:23:16;101236.16;;;8.34;85.02
67029;BME280;53934;52.142;11.738;2022-11-03T07:25:47;101234.06;;;8.92;83.87
67029;BME280;53934;52.142;11.738;2022-11-03T07:28:16;101246.31;;;9.13;81.14
67029;BME280;53934;52.142;11.738;2022-11-03T07:30:43;101240.66;;;9.68;79.44
67029;BME280;53934;52.142;11.738;2022-11-03T07:33:11;101238.00;;;10.12;78.40
67029;BME280;53934;52.142;11.738;2022-11-03T07:35:40;101242.44;;;10.10;77.81
67029;BME280;53934;52.142;11.738;2022-11-03T07:38:10;101240.88;;;10.06;78.25
67029;BME280;53934;52.142;11.738;2022-11-03T07:40:39;101223.53;;;10.03;77.08
67029;BME280;53934;52.142;11.738;2022-11-03T07:43:13;101227.00;;;10.64;73.67
67029;BME280;53934;52.142;11.738;2022-11-03T07:45:45;101216.66;;;10.01;77.67
67029;BME280;53934;52.142;11.738;2022-11-03T07:48:18;101214.53;;;10.09;77.04
67029;BME280;53934;52.142;11.738;2022-11-03T07:50:45;101220.22;;;10.60;75.77
67029;BME280;53934;52.142;11.738;2022-11-03T07:53:17;101204.84;;;10.90;74.31
67029;BME280;53934;52.142;11.738;2022-11-03T07:55:45;101213.53;;;11.11;72.73
67029;BME280;53934;52.142;11.738;2022-11-03T07:58:19;101201.31;;;11.10;72.79
67029;BME280;53934;52.142;11.738;2022-11-03T08:00:47;101202.28;;;10.70;74.48
67029;BME280;53934;52.142;11.738;2022-11-03T08:03:24;101188.84;;;10.78;74.84
67029;BME280;53934;52.142;11.738;2022-11-03T08:05:52;101185.91;;;11.40;73.23
67029;BME280;53934;52.142;11.738;2022-11-03T08:08:18;101190.22;;;11.41;72.91
67029;BME280;53934;52.142;11.738;2022-11-03T08:10:45;101187.28;;;11.30;72.65
67029;BME280;53934;52.142;11.738;2022-11-03T08:13:11;101182.53;;;11.55;71.78
67029;BME280;53934;52.142;11.738;2022-11-03T08:15:38;101177.41;;;11.16;72.92
67029;BME280;53934;52.142;11.738;2022-11-03T08:18:05;101177.16;;;11.39;73.22
67029;BME280;53934;52.142;11.738;2022-11-03T08:20:32;101166.13;;;12.03;70.97
67029;BME280;53934;52.142;11.738;2022-11-03T08:22:58;101163.34;;;12.23;69.57
67029;BME280;53934;52.142;11.738;2022-11-03T08:25:25;101161.72;;;11.86;70.07
67029;BME280;53934;52.142;11.738;2022-11-03T08:27:51;101158.88;;;11.38;72.01
67029;BME280;53934;52.142;11.738;2022-11-03T08:30:18;101149.31;;;11.54;72.82
67029;BME280;53934;52.142;11.738;2022-11-03T08:32:44;101149.81;;;11.79;71.96
67029;BME280;53934;52.142;11.738;2022-11-03T08:35:12;101147.53;;;11.37;72.68
67029;BME280;53934;52.142;11.738;2022-11-03T08:37:38;101141.81;;;10.73;75.50
67029;BME280;53934;52.142;11.738;2022-11-03T08:40:06;101134.00;;;11.09;73.83
67029;BME280;53934;52.142;11.738;2022-11-03T08:42:33;101129.75;;;11.06;75.11
67029;BME280;53934;52.142;11.738;2022-11-03T08:44:59;101129.50;;;10.94;75.59
67029;BME280;53934;52.142;11.738;2022-11-03T08:47:26;101125.31;;;10.71;76.45
67029;BME280;53934;52.142;11.738;2022-11-03T08:49:52;101128.19;;;11.02;77.13
67029;BME280;53934;52.142;11.738;2022-11-03T08:52:20;101125.03;;;10.96;75.56
67029;BME280;53934;52.142;11.738;2022-11-03T08:54:46;101119.19;;;11.08;74.90
67029;BME280;53934;52.142;11.738;2022-11-03T08:57:13;101106.88;;;11.27;76.82
67029;BME280;53934;52.142;11.738;2022-11-03T08:59:40;101115.94;;;11.75;74.34
67029;BME280;53934;52.142;11.738;2022-11-03T09:02:06;101106.88;;;12.30;72.13
67029;BME280;53934;52.142;11.738;2022-11-03T09:04:33;101105.63;;;12.37;71.17
67029;BME280;53934;52.142;11.738;2022-11-03T09:06:59;101107.66;;;11.82;71.45
67029;BME280;53934;52.142;11.738;2022-11-03T09:09:27;101104.84;;;11.15;73.78
67029;BME280;53934;52.142;11.738;2022-11-03T09:11:53;101104.81;;;11.34;74.62
67029;BME280;53934;52.142;11.738;2022-11-03T09:14:20;101106.75;;;11.47;74.64
67029;BME280;53934;52.142;11.738;2022-11-03T09:16:46;101095.41;;;10.94;75.74
67029;BME280;53934;52.142;11.738;2022-11-03T09:19:13;101090.56;;;11.56;76.64
67029;BME280;53934;52.142;11.738;2022-11-03T09:21:39;101094.41;;;11.66;74.48
67029;BME280;53934;52.142;11.738;2022-11-03T09:24:06;101085.34;;;11.02;76.89
67029;BME280;53934;52.142;11.738;2022-11-03T09:26:34;101077.25;;;10.89;77.50
67029;BME280;53934;52.142;11.738;2022-11-03T09:29:01;101082.19;;;10.95;77.74
67029;BME280;53934;52.142;11.738;2022-11-03T09:31:28;101075.69;;;10.85;78.41
67029;BME280;53934;52.142;11.738;2022-11-03T09:33:54;101070.59;;;10.63;80.02
67029;BME280;53934;52.142;11.738;2022-11-03T09:36:21;101071.56;;;10.80;79.36
67029;BME280;53934;52.142;11.738;2022-11-03T09:38:47;101063.44;;;11.03;78.89
67029;BME280;53934;52.142;11.738;2022-11-03T09:41:14;101065.91;;;10.89;79.26
67029;BME280;53934;52.142;11.738;2022-11-03T09:43:44;101056.84;;;10.58;80.00
67029;BME280;53934;52.142;11.738;2022-11-03T09:46:11;101060.44;;;11.10;78.55
67029;BME280;53934;52.142;11.738;2022-11-03T09:48:38;101062.94;;;11.13;77.43
67029;BME280;53934;52.142;11.738;2022-11-03T09:51:07;101052.84;;;11.23;77.63
67029;BME280;53934;52.142;11.738;2022-11-03T09:53:35;101052.53;;;11.29;77.13
67029;BME280;53934;52.142;11.738;2022-11-03T09:56:02;101046.28;;;10.79;79.06
67029;BME280;53934;52.142;11.738;2022-11-03T09:58:28;101035.66;;;11.16;78.83
67029;BME280;53934;52.142;11.738;2022-11-03T10:00:56;101034.16;;;11.29;77.27
67029;BME280;53934;52.142;11.738;2022-11-03T10:03:22;101038.38;;;11.32;77.71
67029;BME280;53934;52.142;11.738;2022-11-03T10:05:49;101032.44;;;10.94;78.37
67029;BME280;53934;52.142;11.738;2022-11-03T10:08:20;101031.47;;;11.48;77.68
67029;BME280;53934;52.142;11.738;2022-11-03T10:10:47;101029.28;;;11.21;78.30
67029;BME280;53934;52.142;11.738;2022-11-03T10:13:20;101026.88;;;11.00;79.58
67029;BME280;53934;52.142;11.738;2022-11-03T10:15:47;101026.31;;;10.93;80.25
67029;BME280;53934;52.142;11.738;2022-11-03T10:18:15;101027.63;;;11.02;80.03
67029;BME280;53934;52.142;11.738;2022-11-03T10:20:43;101013.16;;;11.29;77.58
67029;BME280;53934;52.142;11.738;2022-11-03T10:23:09;101006.03;;;11.65;77.02
67029;BME280;53934;52.142;11.738;2022-11-03T10:25:38;101012.53;;;11.07;78.59
67029;BME280;53934;52.142;11.738;2022-11-03T10:28:25;101015.53;;;10.99;80.03
67029;BME280;53934;52.142;11.738;2022-11-03T10:30:54;101009.91;;;11.24;79.75
67029;BME280;53934;52.142;11.738;2022-11-03T10:33:27;101005.84;;;11.68;79.43
67029;BME280;53934;52.142;11.738;2022-11-03T10:35:55;100997.13;;;11.85;76.69
67029;BME280;53934;52.142;11.738;2022-11-03T10:38:25;100996.97;;;12.52;76.28
67029;BME280;53934;52.142;11.738;2022-11-03T10:40:52;100993.91;;;12.29;75.34
67029;BME280;53934;52.142;11.738;2022-11-03T10:43:19;100992.28;;;12.42;75.64
67029;BME280;53934;52.142;11.738;2022-11-03T10:45:46;100996.31;;;12.16;76.18
67029;BME280;53934;52.142;11.738;2022-11-03T10:48:14;100987.78;;;12.44;75.12
67029;BME280;53934;52.142;11.738;2022-11-03T10:50:42;100985.56;;;12.20;76.75
67029;BME280;53934;52.142;11.738;2022-11-03T10:53:15;100978.69;;;12.02;76.73
67029;BME280;53934;52.142;11.738;2022-11-03T10:55:42;100980.28;;;11.89;77.43
67029;BME280;53934;52.142;11.738;2022-11-03T10:58:09;100977.72;;;11.88;77.93
67029;BME280;53934;52.142;11.738;2022-11-03T11:00:35;100972.78;;;12.14;77.78
67029;BME280;53934;52.142;11.738;2022-11-03T11:03:02;100972.44;;;12.36;76.70
67029;BME280;53934;52.142;11.738;2022-11-03T11:05:31;100965.88;;;12.75;76.02
67029;BME280;53934;52.142;11.738;2022-11-03T11:07:58;100945.69;;;13.35;74.72
67029;BME280;53934;52.142;11.738;2022-11-03T11:10:27;100951.47;;;13.55;73.06
67029;BME280;53934;52.142;11.738;2022-11-03T11:13:22;100944.81;;;14.33;70.68
67029;BME280;53934;52.142;11.738;2022-11-03T11:15:51;100937.69;;;13.79;71.00
67029;BME280;53934;52.142;11.738;2022-11-03T11:21:48;100915.88;;;13.62;72.27
67029;BME280;53934;52.142;11.738;2022-11-03T11:24:59;100925.53;;;14.19;70.50
67029;BME280;53934;52.142;11.738;2022-11-03T11:27:46;100911.34;;;13.93;71.16
67029;BME280;53934;52.142;11.738;2022-11-03T11:33:27;100906.09;;;14.20;70.70
67029;BME280;53934;52.142;11.738;2022-11-03T11:36:20;100895.69;;;14.72;70.41
67029;BME280;53934;52.142;11.738;2022-11-03T11:39:08;100887.25;;;14.79;69.54
67029;BME280;53934;52.142;11.738;2022-11-03T11:42:05;100883.44;;;14.17;69.70
67029;BME280;53934;52.142;11.738;2022-11-03T11:44:49;100874.94;;;14.53;70.61
67029;BME280;53934;52.142;11.738;2022-11-03T11:47:23;100869.13;;;15.13;68.01
67029;BME280;53934;52.142;11.738;2022-11-03T11:49:59;100866.25;;;14.24;67.66
67029;BME280;53934;52.142;11.738;2022-11-03T11:52:28;100869.97;;;14.48;68.96
67029;BME280;53934;52.142;11.738;2022-11-03T11:54:55;100857.72;;;15.12;66.92
67029;BME280;53934;52.142;11.738;2022-11-03T11:57:23;100856.13;;;15.60;65.71
67029;BME280;53934;52.142;11.738;2022-11-03T11:59:50;100843.25;;;15.05;65.06
67029;BME280;53934;52.142;11.738;2022-11-03T12:02:18;100837.72;;;14.04;67.75
67029;BME280;53934;52.142;11.738;2022-11-03T12:04:46;100841.56;;;14.39;67.86
67029;BME280;53934;52.142;11.738;2022-11-03T12:07:12;100831.59;;;15.45;65.78
67029;BME280;53934;52.142;11.738;2022-11-03T12:09:39;100828.00;;;15.46;65.45
67029;BME280;53934;52.142;11.738;2022-11-03T12:12:06;100820.63;;;15.26;63.82
67029;BME280;53934;52.142;11.738;2022-11-03T12:14:35;100805.63;;;15.27;64.34
67029;BME280;53934;52.142;11.738;2022-11-03T12:17:30;100802.03;;;15.53;62.38
67029;BME280;53934;52.142;11.738;2022-11-03T12:19:57;100787.88;;;15.54;62.22
67029;BME280;53934;52.142;11.738;2022-11-03T12:22:47;100774.28;;;14.84;63.77
67029;BME280;53934;52.142;11.738;2022-11-03T12:25:34;100778.50;;;14.87;64.04
67029;BME280;53934;52.142;11.738;2022-11-03T12:28:01;100768.00;;;15.23;63.60
67029;BME280;53934;52.142;11.738;2022-11-03T12:30:29;100758.53;;;15.21;63.22
67029;BME280;53934;52.142;11.738;2022-11-03T12:32:55;100739.00;;;14.73;65.55
67029;BME280;53934;52.142;11.738;2022-11-03T12:35:22;100738.97;;;14.35;66.60
67029;BME280;53934;52.142;11.738;2022-11-03T12:37:48;100743.03;;;14.13;67.47
67029;BME280;53934;52.142;11.738;2022-11-03T12:40:15;100732.53;;;14.39;66.23
67029;BME280;53934;52.142;11.738;2022-11-03T12:42:41;100732.69;;;14.23;67.14
67029;BME280;53934;52.142;11.738;2022-11-03T12:45:09;100733.47;;;13.98;68.01
67029;BME280;53934;52.142;11.738;2022-11-03T12:47:39;100724.97;;;14.47;66.90
67029;BME280;53934;52.142;11.738;2022-11-03T12:50:05;100726.06;;;13.91;68.41
67029;BME280;53934;52.142;11.738;2022-11-03T12:52:32;100712.16;;;13.89;68.76
67029;BME280;53934;52.142;11.738;2022-11-03T12:54:58;100710.69;;;13.97;67.68
67029;BME280;53934;52.142;11.738;2022-11-03T12:57:25;100706.69;;;14.04;67.27
67029;BME280;53934;52.142;11.738;2022-11-03T12:59:51;100701.94;;;14.49;66.00
67029;BME280;53934;52.142;11.738;2022-11-03T13:02:18;100699.09;;;14.39;65.59
67029;BME280;53934;52.142;11.738;2022-11-03T13:04:45;100690.34;;;14.39;65.38
67029;BME280;53934;52.142;11.738;2022-11-03T13:07:12;100692.66;;;14.69;65.51